createdAt,value
2018-02-10T00:00:37.708Z,2.70
2018-02-10T00:03:05.174Z,2.70
2018-02-10T00:05:32.659Z,2.70
2018-02-10T00:08:00.123Z,2.70
2018-02-10T00:10:27.592Z,2.70
2018-02-10T00:12:55.066Z,2.60
2018-02-10T00:15:22.539Z,2.60
2018-02-10T00:17:49.999Z,2.70
2018-02-10T00:20:17.486Z,2.70
2018-02-10T00:22:48.680Z,2.70
2018-02-10T00:25:16.160Z,2.70
2018-02-10T00:27:43.625Z,2.70
2018-02-10T00:30:11.107Z,2.70
2018-02-10T00:32:38.576Z,2.70
2018-02-10T00:35:06.043Z,2.80
2018-02-10T00:37:33.511Z,2.80
2018-02-10T00:40:01.000Z,2.80
2018-02-10T00:42:28.469Z,2.80
2018-02-10T00:44:55.932Z,2.90
2018-02-10T00:47:24.167Z,2.90
2018-02-10T00:49:51.631Z,2.80
2018-02-10T00:52:19.124Z,2.80
2018-02-10T00:54:46.613Z,2.60
2018-02-10T00:57:14.055Z,2.60
2018-02-10T00:59:41.527Z,2.60
2018-02-10T01:02:09.216Z,2.60
2018-02-10T01:04:36.687Z,2.60
2018-02-10T01:07:04.156Z,2.60
2018-02-10T01:09:31.639Z,2.60
2018-02-10T01:11:59.102Z,2.70
2018-02-10T01:14:26.556Z,2.50
2018-02-10T01:16:54.026Z,2.50
2018-02-10T01:19:21.491Z,2.40
2018-02-10T01:21:48.979Z,2.50
2018-02-10T01:24:16.457Z,2.50
2018-02-10T01:26:43.916Z,2.50
2018-02-10T01:29:12.167Z,2.50
2018-02-10T01:31:39.624Z,2.40
2018-02-10T01:34:07.096Z,2.50
2018-02-10T01:36:34.767Z,2.40
2018-02-10T01:39:03.027Z,2.50
2018-02-10T01:41:30.487Z,2.50
2018-02-10T01:43:57.954Z,2.50
2018-02-10T01:46:26.187Z,2.50
2018-02-10T01:48:53.844Z,2.50
2018-02-10T01:51:21.315Z,2.60
2018-02-10T01:53:48.776Z,2.60
2018-02-10T01:56:16.234Z,2.60
2018-02-10T01:58:43.714Z,2.50
2018-02-10T02:01:11.183Z,2.50
2018-02-10T02:03:39.418Z,2.40
2018-02-10T02:06:06.893Z,2.40
2018-02-10T02:08:34.353Z,2.40
2018-02-10T02:11:01.848Z,2.30
2018-02-10T02:13:29.305Z,2.30
2018-02-10T02:15:56.769Z,2.30
2018-02-10T02:18:24.247Z,2.30
2018-02-10T02:20:51.711Z,2.30
2018-02-10T02:23:19.191Z,2.30
2018-02-10T02:25:46.663Z,2.40
2018-02-10T02:28:14.900Z,2.30
2018-02-10T02:30:42.384Z,2.30
2018-02-10T02:33:09.852Z,2.30
2018-02-10T02:35:38.091Z,2.20
2018-02-10T02:38:05.569Z,2.20
2018-02-10T02:40:33.059Z,2.10
2018-02-10T02:43:00.523Z,2.10
2018-02-10T02:45:27.985Z,2.10
2018-02-10T02:47:55.464Z,2.20
2018-02-10T02:50:22.926Z,2.20
2018-02-10T02:52:50.403Z,2.20
2018-02-10T02:55:17.891Z,2.20
2018-02-10T02:57:46.127Z,2.20
2018-02-10T03:00:13.592Z,2.20
2018-02-10T03:02:41.487Z,2.20
2018-02-10T03:05:09.702Z,2.30
2018-02-10T03:07:37.168Z,2.30
2018-02-10T03:10:04.661Z,2.30
2018-02-10T03:12:32.125Z,2.20
2018-02-10T03:14:59.590Z,2.20
2018-02-10T03:17:27.061Z,2.10
2018-02-10T03:19:54.526Z,2.10
2018-02-10T03:22:21.995Z,2.20
2018-02-10T03:24:49.475Z,2.20
2018-02-10T03:27:16.932Z,2.20
2018-02-10T03:29:44.418Z,2.10
2018-02-10T03:32:12.648Z,2.20
2018-02-10T03:34:40.107Z,2.20
2018-02-10T03:37:07.591Z,2.20
2018-02-10T03:39:35.055Z,2.20
2018-02-10T03:42:02.539Z,2.20
2018-02-10T03:44:30.003Z,2.20
2018-02-10T03:46:57.460Z,2.20
2018-02-10T03:49:24.943Z,2.30
2018-02-10T03:51:52.441Z,2.30
2018-02-10T03:54:19.899Z,2.30
2018-02-10T03:56:48.136Z,2.40
2018-02-10T03:59:15.609Z,2.30
2018-02-10T04:01:43.070Z,2.40
2018-02-10T04:04:10.537Z,2.40
2018-02-10T04:06:38.033Z,2.40
2018-02-10T04:09:05.495Z,2.40
2018-02-10T04:11:32.943Z,2.40
2018-02-10T04:14:00.458Z,2.40
2018-02-10T04:16:27.929Z,2.30
2018-02-10T04:18:56.160Z,2.30
2018-02-10T04:21:23.639Z,2.30
2018-02-10T04:23:51.112Z,2.40
2018-02-10T04:26:18.619Z,2.40
2018-02-10T04:28:46.087Z,2.30
2018-02-10T04:31:13.556Z,2.20
2018-02-10T04:33:41.797Z,2.30
2018-02-10T04:36:09.254Z,2.30
2018-02-10T04:38:36.726Z,2.30
2018-02-10T04:41:04.195Z,2.30
2018-02-10T04:43:31.668Z,2.30
2018-02-10T04:45:59.147Z,2.40
2018-02-10T04:48:27.395Z,2.40
2018-02-10T04:50:54.863Z,2.40
2018-02-10T04:53:22.325Z,2.50
2018-02-10T04:55:49.788Z,2.50
2018-02-10T04:58:17.856Z,2.50
2018-02-10T05:00:45.321Z,2.50
2018-02-10T05:03:13.560Z,2.40
2018-02-10T05:05:41.153Z,2.40
2018-02-10T05:08:08.616Z,2.40
2018-02-10T05:10:36.849Z,2.50
2018-02-10T05:13:05.095Z,2.50
2018-02-10T05:15:32.557Z,2.50
2018-02-10T05:18:00.029Z,2.60
2018-02-10T05:20:27.527Z,2.60
2018-02-10T05:22:54.992Z,2.60
2018-02-10T05:25:23.267Z,2.60
2018-02-10T05:27:51.507Z,2.70
2018-02-10T05:30:18.975Z,2.70
2018-02-10T05:32:46.435Z,2.80
2018-02-10T05:35:13.932Z,2.80
2018-02-10T05:37:41.392Z,2.90
2018-02-10T05:40:08.871Z,2.90
2018-02-10T05:42:36.342Z,2.90
2018-02-10T05:45:03.819Z,3.00
2018-02-10T05:47:31.295Z,3.00
2018-02-10T05:49:59.571Z,3.00
2018-02-10T05:52:27.832Z,2.90
2018-02-10T05:54:55.303Z,2.90
2018-02-10T05:57:23.534Z,2.90
2018-02-10T05:59:50.991Z,2.90
2018-02-10T06:02:18.496Z,2.90
2018-02-10T06:04:46.715Z,2.80
2018-02-10T06:07:14.180Z,2.70
2018-02-10T06:09:41.657Z,2.70
2018-02-10T06:12:10.011Z,2.70
2018-02-10T06:14:37.483Z,2.70
2018-02-10T06:17:04.984Z,2.60
2018-02-10T06:19:32.447Z,2.60
2018-02-10T06:21:59.908Z,2.60
2018-02-10T06:24:27.394Z,2.50
2018-02-10T06:26:54.863Z,2.60
2018-02-10T06:29:22.396Z,2.60
2018-02-10T06:31:50.596Z,2.60
2018-02-10T06:34:18.077Z,2.60
2018-02-10T06:36:45.539Z,2.70
2018-02-10T06:39:13.763Z,2.70
2018-02-10T06:41:41.258Z,2.70
2018-02-10T06:44:08.719Z,2.70
2018-02-10T06:46:36.227Z,2.70
2018-02-10T06:49:03.707Z,2.60
2018-02-10T06:51:31.173Z,2.60
2018-02-10T06:53:58.642Z,2.50
2018-02-10T06:56:26.115Z,2.50
2018-02-10T06:58:54.367Z,2.50
2018-02-10T07:01:21.831Z,2.50
2018-02-10T07:03:49.296Z,2.70
2018-02-10T07:06:16.775Z,2.80
2018-02-10T07:08:44.233Z,2.90
2018-02-10T07:11:11.690Z,2.90
2018-02-10T07:13:39.175Z,2.80
2018-02-10T07:16:06.628Z,2.80
2018-02-10T07:18:34.087Z,2.90
2018-02-10T07:21:01.704Z,2.90
2018-02-10T07:23:29.948Z,2.80
2018-02-10T07:25:57.413Z,2.80
2018-02-10T07:28:24.903Z,2.90
2018-02-10T07:30:52.373Z,2.80
2018-02-10T07:33:19.840Z,2.80
2018-02-10T07:35:47.319Z,2.80
2018-02-10T07:38:15.374Z,2.80
2018-02-10T07:40:42.868Z,2.80
2018-02-10T07:43:10.339Z,2.90
2018-02-10T07:45:38.571Z,3.00
2018-02-10T07:48:06.820Z,3.00
2018-02-10T07:50:34.285Z,3.00
2018-02-10T07:53:01.764Z,3.00
2018-02-10T07:55:29.249Z,3.10
2018-02-10T07:57:56.717Z,3.20
2018-02-10T08:00:24.946Z,3.10
2018-02-10T08:02:52.416Z,3.10
2018-02-10T08:05:19.915Z,3.20
2018-02-10T08:07:48.176Z,3.30
2018-02-10T08:10:15.661Z,3.30
2018-02-10T08:12:43.144Z,3.30
2018-02-10T08:15:10.656Z,3.30
2018-02-10T08:17:38.084Z,3.40
2018-02-10T08:20:05.715Z,3.40
2018-02-10T08:22:33.192Z,3.40
2018-02-10T08:25:00.658Z,3.40
2018-02-10T08:27:28.594Z,3.30
2018-02-10T08:29:56.071Z,3.30
2018-02-10T08:32:23.670Z,3.40
2018-02-10T08:34:51.903Z,3.40
2018-02-10T08:37:20.139Z,3.40
2018-02-10T08:39:47.616Z,3.40
2018-02-10T08:42:15.096Z,3.40
2018-02-10T08:44:42.572Z,3.40
2018-02-10T08:47:10.079Z,3.40
2018-02-10T08:49:38.291Z,3.30
2018-02-10T08:52:05.792Z,3.30
2018-02-10T08:54:33.257Z,3.40
2018-02-10T08:57:00.720Z,3.40
2018-02-10T08:59:28.179Z,3.40
2018-02-10T09:01:55.664Z,3.50
2018-02-10T09:04:23.135Z,3.60
2018-02-10T09:06:50.613Z,3.60
2018-02-10T09:09:18.860Z,3.70
2018-02-10T09:11:46.319Z,3.70
2018-02-10T09:14:13.780Z,3.70
2018-02-10T09:16:41.248Z,3.70
2018-02-10T09:19:08.712Z,3.80
2018-02-10T09:21:36.946Z,4.00
2018-02-10T09:24:04.428Z,3.90
2018-02-10T09:26:31.934Z,4.00
2018-02-10T09:28:59.509Z,4.00
2018-02-10T09:31:26.983Z,4.10
2018-02-10T09:33:54.459Z,4.10
2018-02-10T09:36:22.025Z,4.10
2018-02-10T09:38:49.685Z,4.20
2018-02-10T09:41:17.165Z,4.20
2018-02-10T09:43:45.453Z,4.40
2018-02-10T09:46:12.942Z,4.40
2018-02-10T09:48:40.457Z,4.40
2018-02-10T09:51:08.679Z,4.40
2018-02-10T09:53:44.001Z,4.40
2018-02-10T09:56:11.495Z,4.50
2018-02-10T09:58:39.001Z,4.60
2018-02-10T10:01:06.470Z,4.70
2018-02-10T10:03:33.931Z,4.70
2018-02-10T10:06:01.407Z,4.70
2018-02-10T10:08:31.768Z,4.70
2018-02-10T10:11:00.012Z,4.90
2018-02-10T10:13:27.479Z,4.90
2018-02-10T10:15:54.947Z,4.80
2018-02-10T10:18:22.450Z,4.80
2018-02-10T10:20:49.915Z,4.90
2018-02-10T10:23:17.392Z,5.00
2018-02-10T10:25:44.884Z,4.90
2018-02-10T10:28:12.379Z,4.60
2018-02-10T10:30:39.833Z,4.70
2018-02-10T10:33:07.303Z,4.80
2018-02-10T10:35:35.668Z,4.80
2018-02-10T10:38:03.140Z,4.80
2018-02-10T10:40:30.611Z,4.90
2018-02-10T10:42:58.087Z,5.00
2018-02-10T10:45:25.544Z,5.00
2018-02-10T10:47:53.044Z,5.10
2018-02-10T10:50:21.269Z,4.90
2018-02-10T10:52:48.731Z,4.90
2018-02-10T10:55:16.221Z,5.00
2018-02-10T10:57:44.448Z,4.90
2018-02-10T11:00:11.921Z,4.90
2018-02-10T11:02:39.387Z,4.90
2018-02-10T11:05:06.879Z,4.80
2018-02-10T11:07:34.360Z,4.80
2018-02-10T11:10:01.845Z,5.00
2018-02-10T11:12:30.815Z,5.10
2018-02-10T11:14:58.341Z,5.10
2018-02-10T11:17:25.868Z,5.20
2018-02-10T11:19:54.114Z,5.40
2018-02-10T11:22:21.575Z,5.40
2018-02-10T11:24:49.053Z,5.40
2018-02-10T11:27:16.537Z,5.40
2018-02-10T11:29:44.024Z,5.50
2018-02-10T11:32:11.514Z,5.40
2018-02-10T11:34:38.966Z,5.40
2018-02-10T11:37:06.502Z,5.50
2018-02-10T11:39:34.038Z,5.60
2018-02-10T11:42:01.575Z,5.50
2018-02-10T11:44:29.795Z,5.70
2018-02-10T11:46:57.280Z,5.80
2018-02-10T11:49:24.885Z,5.90
2018-02-10T11:51:52.449Z,6.00
2018-02-10T11:54:19.909Z,6.10
2018-02-10T11:56:47.389Z,6.20
2018-02-10T11:59:14.859Z,6.00
2018-02-10T12:01:42.322Z,5.90
2018-02-10T12:04:09.817Z,5.90
2018-02-10T12:06:37.279Z,5.90
2018-02-10T12:09:04.789Z,6.00
2018-02-10T12:11:32.247Z,6.20
2018-02-10T12:13:59.718Z,6.30
2018-02-10T12:16:27.187Z,6.20
2018-02-10T12:18:55.415Z,6.20
2018-02-10T12:21:22.878Z,6.20
2018-02-10T12:23:50.344Z,6.20
2018-02-10T12:26:17.833Z,6.20
2018-02-10T12:28:46.047Z,5.90
2018-02-10T12:31:13.511Z,5.90
2018-02-10T12:33:41.263Z,5.80
2018-02-10T12:36:08.724Z,5.70
2018-02-10T12:38:36.194Z,5.70
2018-02-10T12:41:03.664Z,5.70
2018-02-10T12:43:31.140Z,5.80
2018-02-10T12:45:58.600Z,5.80
2018-02-10T12:48:32.563Z,5.90
2018-02-10T12:51:00.040Z,5.90
2018-02-10T12:53:27.512Z,5.90
2018-02-10T12:55:54.967Z,5.90
2018-02-10T12:58:22.439Z,6.00
2018-02-10T13:00:50.669Z,6.00
2018-02-10T13:03:18.147Z,6.00
2018-02-10T13:05:45.613Z,5.90
2018-02-10T13:08:13.077Z,5.80
2018-02-10T13:10:40.559Z,5.90
2018-02-10T13:13:08.020Z,5.80
2018-02-10T13:15:35.487Z,5.70
2018-02-10T13:18:03.888Z,5.70
2018-02-10T13:20:31.351Z,5.60
2018-02-10T13:22:58.816Z,5.40
2018-02-10T13:25:27.053Z,5.20
2018-02-10T13:27:54.511Z,5.20
2018-02-10T13:30:21.971Z,5.30
2018-02-10T13:32:49.485Z,5.20
2018-02-10T13:35:16.946Z,5.30
2018-02-10T13:37:45.239Z,5.30
2018-02-10T13:40:12.705Z,5.20
2018-02-10T13:42:40.192Z,5.30
2018-02-10T13:45:07.639Z,5.20
2018-02-10T13:47:35.097Z,5.10
2018-02-10T13:50:02.559Z,5.10
2018-02-10T13:52:30.029Z,5.10
2018-02-10T13:54:57.507Z,5.10
2018-02-10T13:57:24.978Z,5.20
2018-02-10T13:59:53.194Z,5.20
2018-02-10T14:02:20.664Z,5.20
2018-02-10T14:04:48.125Z,5.20
2018-02-10T14:07:15.595Z,5.30
2018-02-10T14:09:43.072Z,5.30
2018-02-10T14:12:10.553Z,5.30
2018-02-10T14:14:38.032Z,5.20
2018-02-10T14:17:05.495Z,5.20
2018-02-10T14:19:32.972Z,5.20
2018-02-10T14:22:00.428Z,5.20
2018-02-10T14:24:27.920Z,5.10
2018-02-10T14:26:56.160Z,5.10
2018-02-10T14:29:23.635Z,5.10
2018-02-10T14:31:51.092Z,5.10
2018-02-10T14:34:18.556Z,5.10
2018-02-10T14:36:46.793Z,5.00
2018-02-10T14:39:14.262Z,5.00
2018-02-10T14:41:41.743Z,5.00
2018-02-10T14:44:09.975Z,5.00
2018-02-10T14:46:37.440Z,5.00
2018-02-10T14:49:04.925Z,5.00
2018-02-10T14:51:32.387Z,5.00
2018-02-10T14:53:59.856Z,4.90
2018-02-10T14:56:27.317Z,4.90
2018-02-10T14:58:55.564Z,4.80
2018-02-10T15:01:23.030Z,4.80
2018-02-10T15:03:50.493Z,4.80
2018-02-10T15:06:18.743Z,4.80
2018-02-10T15:08:46.228Z,4.80
2018-02-10T15:11:14.488Z,4.90
2018-02-10T15:13:41.972Z,4.90
2018-02-10T15:16:10.195Z,4.90
2018-02-10T15:18:37.653Z,4.90
2018-02-10T15:21:05.124Z,4.80
2018-02-10T15:23:32.719Z,4.70
2018-02-10T15:26:00.988Z,4.60
2018-02-10T15:28:29.219Z,4.60
2018-02-10T15:31:09.210Z,4.60
2018-02-10T15:33:49.350Z,4.70
2018-02-10T15:36:16.856Z,4.70
2018-02-10T15:38:44.315Z,4.60
2018-02-10T15:41:11.783Z,4.70
2018-02-10T15:43:39.257Z,4.70
2018-02-10T15:46:06.720Z,4.80
2018-02-10T15:48:34.196Z,4.70
2018-02-10T15:51:02.192Z,4.60
2018-02-10T15:53:30.495Z,4.60
2018-02-10T15:55:57.959Z,4.60
2018-02-10T15:58:25.435Z,4.50
2018-02-10T16:00:52.894Z,4.50
2018-02-10T16:03:20.379Z,4.50
2018-02-10T16:05:49.023Z,4.50
2018-02-10T16:08:16.487Z,4.40
2018-02-10T16:10:43.967Z,4.50
2018-02-10T16:13:11.427Z,4.40
2018-02-10T16:15:39.669Z,4.50
2018-02-10T16:18:07.832Z,4.50
2018-02-10T16:20:35.318Z,4.60
2018-02-10T16:23:02.780Z,4.50
2018-02-10T16:25:30.246Z,4.50
2018-02-10T16:27:58.488Z,4.50
2018-02-10T16:30:25.976Z,4.50
2018-02-10T16:32:53.439Z,4.50
2018-02-10T16:35:21.744Z,4.40
2018-02-10T16:37:49.195Z,4.40
2018-02-10T16:40:16.664Z,4.40
2018-02-10T16:42:44.260Z,4.40
2018-02-10T16:45:11.721Z,4.50
2018-02-10T16:47:39.205Z,4.50
2018-02-10T16:50:07.441Z,4.40
2018-02-10T16:52:34.895Z,4.40
2018-02-10T16:55:02.391Z,4.30
2018-02-10T16:57:30.637Z,4.20
2018-02-10T16:59:58.099Z,4.10
2018-02-10T17:02:25.584Z,4.20
2018-02-10T17:04:53.816Z,4.20
2018-02-10T17:07:21.271Z,4.20
2018-02-10T17:09:48.864Z,4.30
2018-02-10T17:12:17.084Z,4.40
2018-02-10T17:14:44.559Z,4.40
2018-02-10T17:17:12.156Z,4.50
2018-02-10T17:19:40.384Z,4.60
2018-02-10T17:22:07.859Z,4.50
2018-02-10T17:24:35.435Z,4.50
2018-02-10T17:27:02.898Z,4.50
2018-02-10T17:29:31.131Z,4.50
2018-02-10T17:31:58.615Z,4.40
2018-02-10T17:34:26.081Z,4.50
2018-02-10T17:36:53.611Z,4.50
2018-02-10T17:39:21.069Z,4.50
2018-02-10T17:41:48.544Z,4.50
2018-02-10T17:44:16.026Z,4.50
2018-02-10T17:46:44.261Z,4.50
2018-02-10T17:49:11.752Z,4.50
2018-02-10T17:51:39.975Z,4.30
2018-02-10T17:54:07.436Z,4.30
2018-02-10T17:56:34.916Z,4.30
2018-02-10T17:59:02.412Z,4.30
2018-02-10T18:01:30.649Z,4.20
2018-02-10T18:03:58.118Z,4.20
2018-02-10T18:06:25.615Z,4.30
2018-02-10T18:08:53.139Z,4.20
2018-02-10T18:11:21.367Z,4.30
2018-02-10T18:13:48.878Z,4.20
2018-02-10T18:16:17.108Z,4.20
2018-02-10T18:18:44.600Z,4.20
2018-02-10T18:21:12.831Z,4.20
2018-02-10T18:23:40.299Z,4.20
2018-02-10T18:26:07.794Z,4.20
2018-02-10T18:28:36.013Z,4.10
2018-02-10T18:31:03.484Z,4.10
2018-02-10T18:33:30.972Z,4.00
2018-02-10T18:35:58.435Z,3.90
2018-02-10T18:38:26.675Z,3.80
2018-02-10T18:40:54.308Z,3.80
2018-02-10T18:43:21.788Z,3.80
2018-02-10T18:45:49.263Z,3.80
2018-02-10T18:48:16.734Z,3.90
2018-02-10T18:50:44.199Z,3.90
2018-02-10T18:53:12.577Z,3.70
2018-02-10T18:55:40.039Z,3.70
2018-02-10T18:58:08.271Z,3.70
2018-02-10T19:00:35.763Z,3.70
2018-02-10T19:03:03.992Z,3.80
2018-02-10T19:05:31.455Z,3.80
2018-02-10T19:07:58.927Z,3.90
2018-02-10T19:10:26.432Z,3.90
2018-02-10T19:12:53.904Z,3.80
2018-02-10T19:15:21.375Z,3.70
2018-02-10T19:17:48.877Z,3.70
2018-02-10T19:20:16.335Z,3.60
2018-02-10T19:22:43.857Z,3.50
2018-02-10T19:25:12.060Z,3.40
2018-02-10T19:27:39.573Z,3.40
2018-02-10T19:30:07.054Z,3.40
2018-02-10T19:32:34.549Z,3.40
2018-02-10T19:35:02.790Z,3.40
2018-02-10T19:37:30.260Z,3.30
2018-02-10T19:39:57.752Z,3.40
2018-02-10T19:42:25.251Z,3.40
2018-02-10T19:44:52.712Z,3.40
2018-02-10T19:47:20.178Z,3.40
2018-02-10T19:49:47.652Z,3.40
2018-02-10T19:52:15.884Z,3.40
2018-02-10T19:54:43.356Z,3.40
2018-02-10T19:57:10.835Z,3.40
2018-02-10T19:59:38.295Z,3.40
2018-02-10T20:02:05.766Z,3.40
2018-02-10T20:04:33.999Z,3.30
2018-02-10T20:07:01.459Z,3.30
2018-02-10T20:09:28.928Z,3.30
2018-02-10T20:11:56.379Z,3.20
2018-02-10T20:14:23.847Z,3.20
2018-02-10T20:16:51.312Z,3.20
2018-02-10T20:19:19.557Z,3.20
2018-02-10T20:21:47.945Z,3.20
2018-02-10T20:24:15.407Z,3.20
2018-02-10T20:26:42.901Z,3.20
2018-02-10T20:29:11.107Z,3.20
2018-02-10T20:31:38.568Z,3.20
2018-02-10T20:34:06.040Z,3.10
2018-02-10T20:36:33.639Z,3.10
2018-02-10T20:39:01.864Z,3.10
2018-02-10T20:41:29.319Z,3.10
2018-02-10T20:43:56.786Z,3.10
2018-02-10T20:46:24.253Z,3.10
2018-02-10T20:48:51.716Z,3.10
2018-02-10T20:51:19.251Z,3.10
2018-02-10T20:53:46.717Z,3.10
2018-02-10T20:56:14.180Z,3.10
2018-02-10T20:58:41.647Z,3.10
2018-02-10T21:01:09.124Z,3.10
2018-02-10T21:03:37.351Z,3.20
2018-02-10T21:06:04.824Z,3.20
2018-02-10T21:08:32.284Z,3.20
2018-02-10T21:10:59.767Z,3.20
2018-02-10T21:13:27.992Z,3.20
2018-02-10T21:15:55.457Z,3.20
2018-02-10T21:18:22.921Z,3.20
2018-02-10T21:20:50.379Z,3.20
2018-02-10T21:23:17.848Z,3.10
2018-02-10T21:25:45.356Z,3.20
2018-02-10T21:28:12.803Z,3.20
2018-02-10T21:30:40.263Z,3.20
2018-02-10T21:33:07.735Z,3.20
2018-02-10T21:35:35.583Z,3.20
2018-02-10T21:38:03.068Z,3.20
2018-02-10T21:40:33.655Z,3.20
2018-02-10T21:43:01.223Z,3.20
2018-02-10T21:45:28.680Z,3.20
2018-02-10T21:47:56.163Z,3.10
2018-02-10T21:50:23.628Z,3.20
2018-02-10T21:52:51.095Z,3.10
2018-02-10T21:55:18.564Z,3.10
2018-02-10T21:57:46.818Z,3.00
2018-02-10T22:00:14.279Z,3.00
2018-02-10T22:02:41.735Z,3.00
2018-02-10T22:05:09.208Z,2.90
2018-02-10T22:07:36.921Z,3.00
2018-02-10T22:10:04.373Z,3.00
2018-02-10T22:12:33.616Z,3.10
2018-02-10T22:15:02.301Z,3.00
2018-02-10T22:17:29.861Z,2.90
2018-02-10T22:19:57.324Z,3.00
2018-02-10T22:22:24.813Z,3.00
2018-02-10T22:24:53.153Z,3.00
2018-02-10T22:27:20.752Z,3.00
2018-02-10T22:29:49.045Z,3.00
2018-02-10T22:32:16.498Z,3.00
2018-02-10T22:34:43.965Z,2.90
2018-02-10T22:37:11.439Z,2.90
2018-02-10T22:39:38.928Z,2.90
2018-02-10T22:42:06.387Z,3.00
2018-02-10T22:44:34.845Z,2.90
2018-02-10T22:47:02.344Z,2.90
2018-02-10T22:49:30.623Z,2.90
2018-02-10T22:51:58.177Z,2.90
2018-02-10T22:54:25.656Z,2.90
2018-02-10T22:56:53.107Z,3.00
2018-02-10T22:59:20.577Z,3.00
2018-02-10T23:01:48.042Z,2.90
2018-02-10T23:04:15.508Z,2.90
2018-02-10T23:06:42.966Z,2.90
2018-02-10T23:09:10.428Z,2.90
2018-02-10T23:11:37.911Z,2.90
2018-02-10T23:14:05.380Z,2.90
2018-02-10T23:16:33.607Z,2.90
2018-02-10T23:19:01.109Z,2.90
2018-02-10T23:21:28.567Z,2.90
2018-02-10T23:23:56.792Z,2.80
2018-02-10T23:26:24.331Z,2.90
2018-02-10T23:28:51.946Z,2.90
2018-02-10T23:31:19.414Z,2.90
2018-02-10T23:33:47.672Z,3.00
2018-02-10T23:36:15.128Z,2.90
2018-02-10T23:38:42.591Z,2.90
2018-02-10T23:41:10.080Z,2.90
2018-02-10T23:43:37.545Z,2.80
2018-02-10T23:46:05.031Z,2.90
2018-02-10T23:48:32.503Z,2.80
2018-02-10T23:50:59.975Z,2.70
2018-02-10T23:53:27.573Z,2.70
2018-02-10T23:55:55.033Z,2.70
2018-02-10T23:58:22.494Z,2.70
